createdAt,value
2019-04-10T00:00:29.113Z,111.17
2019-04-10T00:02:59.857Z,117.25
2019-04-10T00:05:29.459Z,118.10
2019-04-10T00:07:59.806Z,108.22
2019-04-10T00:10:30.268Z,113.08
2019-04-10T00:13:00.403Z,109.95
2019-04-10T00:15:31.280Z,108.03
2019-04-10T00:18:01.965Z,113.05
2019-04-10T00:20:32.320Z,112.57
2019-04-10T00:23:02.545Z,113.97
2019-04-10T00:25:33.326Z,115.50
2019-04-10T00:28:03.752Z,115.57
2019-04-10T00:30:34.079Z,118.30
2019-04-10T00:33:04.775Z,121.50
2019-04-10T00:35:35.212Z,122.85
2019-04-10T00:38:05.863Z,123.53
2019-04-10T00:40:35.909Z,121.25
2019-04-10T00:43:06.708Z,121.22
2019-04-10T00:45:37.658Z,119.77
2019-04-10T00:48:07.915Z,127.92
2019-04-10T00:50:38.931Z,124.50
2019-04-10T00:53:10.276Z,125.82
2019-04-10T00:55:41.285Z,129.18
2019-04-10T00:58:12.143Z,139.43
2019-04-10T01:00:43.352Z,137.35
2019-04-10T01:03:27.455Z,138.18
2019-04-10T01:05:57.871Z,147.65
2019-04-10T01:08:28.693Z,200.10
2019-04-10T01:10:59.380Z,176.12
2019-04-10T01:13:29.268Z,586.60
2019-04-10T01:16:00.729Z,200.55
2019-04-10T01:18:31.119Z,387.82
2019-04-10T01:21:02.007Z,167.03
2019-04-10T01:23:33.108Z,154.42
2019-04-10T01:26:03.559Z,142.87
2019-04-10T01:28:34.185Z,169.10
2019-04-10T01:31:04.505Z,162.00
2019-04-10T01:33:35.007Z,144.57
2019-04-10T01:36:05.389Z,158.32
2019-04-10T01:38:35.593Z,154.45
2019-04-10T01:41:05.804Z,166.40
2019-04-10T01:43:37.099Z,156.63
2019-04-10T01:46:08.370Z,151.55
2019-04-10T01:48:38.433Z,189.75
2019-04-10T01:51:08.745Z,186.12
2019-04-10T01:53:39.152Z,186.77
2019-04-10T01:56:21.138Z,193.17
2019-04-10T01:58:41.873Z,175.60
2019-04-10T02:01:20.640Z,193.55
2019-04-10T02:03:52.004Z,194.93
2019-04-10T02:06:21.330Z,159.40
2019-04-10T02:08:51.662Z,171.68
2019-04-10T02:11:21.801Z,163.62
2019-04-10T02:13:51.790Z,159.70
2019-04-10T02:16:21.559Z,170.28
2019-04-10T02:18:52.025Z,174.40
2019-04-10T02:21:23.392Z,168.45
2019-04-10T02:23:54.453Z,168.97
2019-04-10T02:26:25.544Z,167.68
2019-04-10T02:28:55.797Z,163.28
2019-04-10T02:31:28.093Z,176.97
2019-04-10T02:33:59.916Z,165.25
2019-04-10T02:36:31.582Z,151.12
2019-04-10T02:39:13.990Z,182.78
2019-04-10T02:41:34.559Z,177.10
2019-04-10T02:44:04.847Z,181.65
2019-04-10T02:46:36.779Z,193.80
2019-04-10T02:49:08.233Z,177.78
2019-04-10T02:51:41.097Z,184.13
2019-04-10T02:54:11.536Z,196.82
2019-04-10T02:56:44.201Z,197.60
2019-04-10T02:59:15.637Z,193.20
2019-04-10T03:01:45.635Z,206.70
2019-04-10T03:04:16.523Z,184.50
2019-04-10T03:06:47.903Z,165.20
2019-04-10T03:09:32.528Z,162.95
2019-04-10T03:11:51.929Z,173.93
2019-04-10T03:14:24.157Z,183.00
2019-04-10T03:16:55.496Z,175.32
2019-04-10T03:19:25.510Z,189.60
2019-04-10T03:21:57.577Z,211.87
2019-04-10T03:24:27.737Z,192.82
2019-04-10T03:26:58.310Z,203.22
2019-04-10T03:29:28.277Z,188.40
2019-04-10T03:31:59.540Z,187.20
2019-04-10T03:34:33.716Z,171.47
2019-04-10T03:37:02.892Z,182.27
2019-04-10T03:39:35.908Z,176.15
2019-04-10T03:42:06.505Z,184.50
2019-04-10T03:44:36.153Z,174.95
2019-04-10T03:47:07.086Z,180.97
2019-04-10T03:49:36.836Z,190.82
2019-04-10T03:52:07.252Z,203.00
2019-04-10T03:54:38.946Z,191.30
2019-04-10T03:57:10.036Z,193.35
2019-04-10T03:59:41.693Z,209.50
2019-04-10T04:02:13.609Z,219.68
2019-04-10T04:04:43.924Z,185.30
2019-04-10T04:07:15.382Z,193.90
2019-04-10T04:09:46.050Z,197.00
2019-04-10T04:12:16.073Z,199.87
2019-04-10T04:14:46.440Z,183.90
2019-04-10T04:17:16.158Z,179.05
2019-04-10T04:19:46.481Z,208.00
2019-04-10T04:22:16.692Z,211.28
2019-04-10T04:24:46.782Z,203.60
2019-04-10T04:27:17.546Z,180.42
2019-04-10T04:29:49.786Z,191.28
2019-04-10T04:32:21.689Z,193.17
2019-04-10T04:34:52.197Z,195.65
2019-04-10T04:37:22.932Z,185.50
2019-04-10T04:39:52.917Z,199.75
2019-04-10T04:42:22.703Z,195.03
2019-04-10T04:44:52.896Z,209.83
2019-04-10T04:47:22.979Z,180.35
2019-04-10T04:49:53.080Z,185.35
2019-04-10T04:52:24.024Z,196.72
2019-04-10T04:54:55.253Z,198.90
2019-04-10T04:57:24.951Z,195.55
2019-04-10T04:59:55.546Z,230.30
2019-04-10T05:02:26.214Z,201.90
2019-04-10T05:04:56.812Z,200.80
2019-04-10T05:07:27.222Z,198.85
2019-04-10T05:09:59.148Z,201.75
2019-04-10T05:12:29.371Z,196.15
2019-04-10T05:15:00.383Z,211.77
2019-04-10T05:17:30.956Z,194.67
2019-04-10T05:20:03.119Z,202.40
2019-04-10T05:22:33.729Z,190.40
2019-04-10T05:25:06.934Z,199.23
2019-04-10T05:27:37.200Z,199.32
2019-04-10T05:30:08.401Z,198.32
2019-04-10T05:32:39.707Z,220.73
2019-04-10T05:35:10.221Z,212.90
2019-04-10T05:37:40.947Z,226.18
2019-04-10T05:40:11.871Z,209.27
2019-04-10T05:42:42.076Z,207.83
2019-04-10T05:45:12.687Z,204.15
2019-04-10T05:47:44.449Z,206.10
2019-04-10T05:50:15.043Z,200.70
2019-04-10T05:52:45.158Z,202.82
2019-04-10T05:55:16.155Z,193.78
2019-04-10T05:57:46.613Z,197.30
2019-04-10T06:00:18.851Z,204.53
2019-04-10T06:02:50.186Z,190.82
2019-04-10T06:05:22.360Z,178.05
2019-04-10T06:07:52.091Z,178.85
2019-04-10T06:10:22.103Z,185.15
2019-04-10T06:12:53.082Z,193.45
2019-04-10T06:15:23.232Z,195.07
2019-04-10T06:17:54.543Z,178.57
2019-04-10T06:20:25.095Z,185.28
2019-04-10T06:22:55.292Z,206.45
2019-04-10T06:25:25.843Z,184.90
2019-04-10T06:27:56.853Z,196.87
2019-04-10T06:30:27.963Z,176.63
2019-04-10T06:32:57.990Z,187.05
2019-04-10T06:35:28.419Z,201.40
2019-04-10T06:38:00.382Z,193.55
2019-04-10T06:40:31.152Z,181.00
2019-04-10T06:43:01.039Z,178.60
2019-04-10T06:45:31.672Z,179.70
2019-04-10T06:48:02.689Z,185.60
2019-04-10T06:50:33.138Z,193.50
2019-04-10T06:53:04.161Z,207.65
2019-04-10T06:55:34.720Z,186.88
2019-04-10T06:58:05.215Z,200.25
2019-04-10T07:00:36.927Z,185.32
2019-04-10T07:03:08.512Z,183.87
2019-04-10T07:05:49.672Z,188.90
2019-04-10T07:08:16.543Z,214.23
2019-04-10T07:10:51.979Z,188.90
2019-04-10T07:13:15.533Z,199.50
2019-04-10T07:15:46.966Z,204.65
2019-04-10T07:18:20.242Z,191.68
2019-04-10T07:20:49.009Z,195.57
2019-04-10T07:23:25.897Z,204.93
2019-04-10T07:25:52.053Z,182.50
2019-04-10T07:28:23.564Z,190.85
2019-04-10T07:30:56.866Z,221.80
2019-04-10T07:33:25.231Z,206.65
2019-04-10T07:35:56.608Z,177.97
2019-04-10T07:38:27.205Z,183.87
2019-04-10T07:40:56.962Z,192.45
2019-04-10T07:43:28.912Z,177.53
2019-04-10T07:45:59.984Z,170.40
2019-04-10T07:48:29.683Z,181.87
2019-04-10T07:51:00.601Z,155.43
2019-04-10T07:53:30.986Z,170.22
2019-04-10T07:56:06.883Z,161.10
2019-04-10T07:58:33.867Z,169.62
2019-04-10T08:01:05.105Z,154.53
2019-04-10T08:03:35.450Z,163.15
2019-04-10T08:06:07.002Z,164.00
2019-04-10T08:08:38.334Z,163.57
2019-04-10T08:11:07.750Z,150.35
2019-04-10T08:13:37.052Z,189.65
2019-04-10T08:16:08.273Z,186.80
2019-04-10T08:18:39.451Z,157.05
2019-04-10T08:21:09.957Z,151.87
2019-04-10T08:23:40.517Z,156.75
2019-04-10T08:26:10.903Z,158.57
2019-04-10T08:28:41.282Z,150.45
2019-04-10T08:31:12.765Z,148.93
2019-04-10T08:33:42.610Z,161.40
2019-04-10T08:36:13.288Z,166.53
2019-04-10T08:38:42.962Z,147.43
2019-04-10T08:41:13.157Z,151.70
2019-04-10T08:43:43.622Z,150.45
2019-04-10T08:46:13.996Z,143.90
2019-04-10T08:48:44.684Z,128.47
2019-04-10T08:51:14.933Z,134.57
2019-04-10T08:53:46.605Z,133.15
2019-04-10T08:56:18.350Z,132.57
2019-04-10T08:58:49.485Z,132.63
2019-04-10T09:01:20.887Z,128.55
2019-04-10T09:03:51.477Z,115.35
2019-04-10T09:06:21.539Z,119.93
2019-04-10T09:08:51.592Z,121.50
2019-04-10T09:11:26.184Z,126.92
2019-04-10T09:13:54.941Z,119.97
2019-04-10T09:16:25.300Z,124.33
2019-04-10T09:18:55.772Z,121.42
2019-04-10T09:21:25.628Z,116.33
2019-04-10T09:23:57.681Z,118.00
2019-04-10T09:26:28.607Z,128.53
2019-04-10T09:28:59.359Z,124.62
2019-04-10T09:31:29.803Z,129.15
2019-04-10T09:33:59.460Z,121.17
2019-04-10T09:36:29.529Z,126.67
2019-04-10T09:38:59.419Z,116.17
2019-04-10T09:41:30.015Z,110.83
2019-04-10T09:44:00.976Z,114.17
2019-04-10T09:46:31.081Z,111.68
2019-04-10T09:49:02.526Z,114.30
2019-04-10T09:51:32.751Z,118.15
2019-04-10T09:54:03.576Z,116.45
2019-04-10T09:56:34.511Z,116.57
2019-04-10T09:59:05.372Z,114.00
2019-04-10T10:01:36.243Z,114.60
2019-04-10T10:04:07.054Z,121.62
2019-04-10T10:06:38.463Z,110.35
2019-04-10T10:09:09.076Z,117.28
2019-04-10T10:11:39.590Z,116.82
2019-04-10T10:14:10.394Z,116.30
2019-04-10T10:16:42.183Z,111.15
2019-04-10T10:19:12.411Z,117.95
2019-04-10T10:21:43.130Z,115.00
2019-04-10T10:24:14.093Z,110.17
2019-04-10T10:26:46.468Z,118.13
2019-04-10T10:29:17.595Z,109.85
2019-04-10T10:31:49.802Z,114.25
2019-04-10T10:34:20.641Z,113.25
2019-04-10T10:36:53.234Z,122.17
2019-04-10T10:39:23.311Z,109.78
2019-04-10T10:41:54.345Z,106.60
2019-04-10T10:44:26.120Z,104.15
2019-04-10T10:46:57.924Z,98.65
2019-04-10T10:49:28.576Z,96.47
2019-04-10T10:51:59.400Z,101.30
2019-04-10T10:54:29.861Z,98.78
2019-04-10T10:57:02.549Z,96.82
2019-04-10T10:59:33.609Z,102.32
2019-04-10T11:02:04.572Z,100.47
2019-04-10T11:04:35.470Z,96.72
2019-04-10T11:07:06.813Z,100.53
2019-04-10T11:09:37.276Z,97.82
2019-04-10T11:12:09.531Z,103.22
2019-04-10T11:14:40.507Z,92.95
2019-04-10T11:17:11.900Z,87.57
2019-04-10T11:19:43.405Z,91.53
2019-04-10T11:22:14.864Z,86.92
2019-04-10T11:24:46.876Z,95.50
2019-04-10T11:27:18.038Z,94.72
2019-04-10T11:29:48.681Z,92.22
2019-04-10T11:32:19.904Z,89.35
2019-04-10T11:34:50.702Z,93.78
2019-04-10T11:37:35.028Z,87.30
2019-04-10T11:40:01.035Z,86.12
2019-04-10T11:42:32.204Z,82.80
2019-04-10T11:45:06.022Z,87.85
2019-04-10T11:47:36.385Z,84.37
2019-04-10T11:50:09.501Z,84.65
2019-04-10T11:52:44.736Z,79.65
2019-04-10T11:55:16.171Z,81.85
2019-04-10T11:57:45.900Z,83.70
2019-04-10T12:00:20.375Z,83.17
2019-04-10T12:02:52.408Z,73.72
2019-04-10T12:05:22.046Z,82.70
2019-04-10T12:08:17.998Z,81.17
2019-04-10T12:12:57.510Z,82.22
2019-04-10T12:15:28.167Z,81.95
2019-04-10T12:17:58.588Z,85.60
2019-04-10T12:20:29.240Z,81.08
2019-04-10T12:23:00.756Z,81.35
2019-04-10T12:25:31.182Z,81.55
2019-04-10T12:28:01.671Z,86.45
2019-04-10T12:30:32.613Z,77.27
2019-04-10T12:33:03.403Z,84.77
2019-04-10T12:35:33.980Z,84.72
2019-04-10T12:38:09.732Z,83.55
2019-04-10T12:40:38.951Z,82.95
2019-04-10T12:43:08.778Z,82.37
2019-04-10T12:45:40.292Z,85.60
2019-04-10T12:48:10.497Z,80.87
2019-04-10T12:50:41.270Z,85.00
2019-04-10T12:53:11.727Z,79.60
2019-04-10T12:55:42.184Z,81.05
2019-04-10T12:58:17.047Z,83.27
2019-04-10T13:00:44.627Z,81.90
2019-04-10T13:03:16.658Z,79.97
2019-04-10T13:05:47.271Z,80.07
2019-04-10T13:08:21.682Z,77.22
2019-04-10T13:10:49.418Z,79.00
2019-04-10T13:13:19.999Z,79.90
2019-04-10T13:15:49.870Z,76.92
2019-04-10T13:18:20.625Z,77.47
2019-04-10T13:20:50.736Z,75.90
2019-04-10T13:23:20.833Z,77.90
2019-04-10T13:25:59.149Z,80.38
2019-04-10T13:28:23.397Z,72.72
2019-04-10T13:30:56.432Z,80.00
2019-04-10T13:33:26.795Z,78.15
2019-04-10T13:35:57.608Z,79.87
2019-04-10T13:38:32.659Z,72.90
2019-04-10T13:40:59.747Z,74.07
2019-04-10T13:43:29.906Z,78.65
2019-04-10T13:46:00.567Z,78.15
2019-04-10T13:48:31.450Z,78.85
2019-04-10T13:51:01.308Z,78.02
2019-04-10T13:53:30.659Z,77.78
2019-04-10T13:56:00.982Z,80.75
2019-04-10T13:58:31.565Z,76.70
2019-04-10T14:01:01.328Z,77.05
2019-04-10T14:03:31.356Z,81.80
2019-04-10T14:06:01.472Z,72.55
2019-04-10T14:08:47.199Z,79.15
2019-04-10T14:11:04.764Z,75.22
2019-04-10T14:13:35.870Z,81.20
2019-04-10T14:16:06.665Z,78.83
2019-04-10T14:18:37.129Z,77.32
2019-04-10T14:21:12.913Z,77.78
2019-04-10T14:23:39.810Z,82.12
2019-04-10T14:26:43.713Z,74.17
2019-04-10T14:29:18.466Z,80.47
2019-04-10T14:31:53.255Z,76.42
2019-04-10T14:34:23.714Z,79.45
2019-04-10T14:36:54.796Z,80.32
2019-04-10T14:39:24.975Z,83.22
2019-04-10T14:41:55.313Z,78.72
2019-04-10T14:44:25.506Z,83.05
2019-04-10T14:46:55.228Z,82.10
2019-04-10T14:49:25.364Z,90.20
2019-04-10T14:51:56.789Z,91.97
2019-04-10T14:54:27.981Z,80.07
2019-04-10T14:56:57.384Z,80.28
2019-04-10T14:59:28.217Z,85.72
2019-04-10T15:01:58.741Z,82.00
2019-04-10T15:04:29.446Z,76.15
2019-04-10T15:06:59.857Z,79.82
2019-04-10T15:09:30.719Z,84.32
2019-04-10T15:12:01.188Z,78.10
2019-04-10T15:14:33.876Z,84.55
2019-04-10T15:17:06.199Z,77.67
2019-04-10T15:19:36.416Z,76.15
2019-04-10T15:22:07.415Z,74.17
2019-04-10T15:24:37.931Z,75.60
2019-04-10T15:27:08.996Z,80.97
2019-04-10T15:29:40.770Z,80.83
2019-04-10T15:32:10.984Z,77.42
2019-04-10T15:34:41.639Z,72.47
2019-04-10T15:37:12.943Z,87.85
2019-04-10T15:39:44.755Z,84.83
2019-04-10T15:42:16.146Z,89.67
2019-04-10T15:44:46.670Z,68.67
2019-04-10T15:47:21.435Z,70.57
2019-04-10T15:49:49.459Z,74.27
2019-04-10T15:52:19.917Z,74.50
2019-04-10T15:54:53.424Z,71.40
2019-04-10T15:57:22.778Z,67.17
2019-04-10T15:59:54.587Z,78.75
2019-04-10T16:02:25.878Z,79.10
2019-04-10T16:04:57.247Z,85.92
2019-04-10T16:07:28.763Z,79.58
2019-04-10T16:10:08.521Z,73.80
2019-04-10T16:12:39.515Z,73.22
2019-04-10T16:15:11.186Z,66.25
2019-04-10T16:17:52.209Z,65.67
2019-04-10T16:20:25.253Z,63.58
2019-04-10T16:23:01.223Z,59.30
2019-04-10T16:25:32.041Z,57.40
2019-04-10T16:28:04.091Z,61.37
2019-04-10T16:30:34.953Z,66.20
2019-04-10T16:33:05.376Z,62.35
2019-04-10T16:35:37.204Z,57.90
2019-04-10T16:38:08.543Z,59.48
2019-04-10T16:40:40.448Z,65.65
2019-04-10T16:43:10.276Z,67.72
2019-04-10T16:45:40.759Z,66.95
2019-04-10T16:48:10.670Z,62.53
2019-04-10T16:50:41.430Z,60.03
2019-04-10T16:53:12.265Z,60.00
2019-04-10T16:55:43.062Z,61.63
2019-04-10T16:58:13.754Z,67.30
2019-04-10T17:00:43.899Z,61.33
2019-04-10T17:03:13.558Z,62.35
2019-04-10T17:05:44.063Z,58.13
2019-04-10T17:08:14.294Z,63.17
2019-04-10T17:10:44.831Z,60.28
2019-04-10T17:13:16.243Z,58.73
2019-04-10T17:15:48.640Z,59.13
2019-04-10T17:18:19.141Z,56.60
2019-04-10T17:20:48.966Z,57.10
2019-04-10T17:23:20.314Z,59.13
2019-04-10T17:25:50.769Z,58.13
2019-04-10T17:28:22.994Z,57.17
2019-04-10T17:34:30.887Z,54.48
2019-04-10T17:37:01.195Z,61.28
2019-04-10T17:39:31.339Z,61.85
2019-04-10T17:42:30.395Z,64.45
2019-04-10T17:45:00.599Z,60.28
2019-04-10T17:47:31.283Z,61.95
2019-04-10T17:50:01.540Z,56.65
2019-04-10T17:52:34.677Z,60.10
2019-04-10T17:55:04.265Z,69.30
2019-04-10T17:57:39.850Z,66.72
2019-04-10T18:00:11.164Z,70.87
2019-04-10T18:02:43.044Z,69.07
2019-04-10T18:05:14.813Z,71.70
2019-04-10T18:07:46.019Z,66.10
2019-04-10T18:10:16.616Z,69.70
2019-04-10T18:12:46.675Z,72.58
2019-04-10T18:15:17.661Z,70.97
2019-04-10T18:17:49.240Z,69.27
2019-04-10T18:20:19.955Z,68.72
2019-04-10T18:22:51.942Z,71.07
2019-04-10T18:25:22.406Z,71.25
2019-04-10T18:27:53.216Z,71.15
2019-04-10T18:30:23.859Z,74.55
2019-04-10T18:32:54.396Z,72.22
2019-04-10T18:35:25.172Z,74.17
2019-04-10T18:37:55.294Z,72.32
2019-04-10T18:40:25.414Z,73.85
2019-04-10T18:42:57.543Z,73.10
2019-04-10T18:45:28.155Z,74.47
2019-04-10T18:47:58.569Z,71.77
2019-04-10T18:50:28.791Z,75.50
2019-04-10T18:52:59.354Z,70.67
2019-04-10T18:55:30.109Z,69.58
2019-04-10T18:58:01.574Z,70.52
2019-04-10T19:00:50.983Z,76.22
2019-04-10T19:03:49.096Z,69.17
2019-04-10T19:06:23.170Z,75.12
2019-04-10T19:09:04.957Z,81.45
2019-04-10T19:11:29.085Z,86.85
2019-04-10T19:13:57.261Z,79.80
2019-04-10T19:16:27.740Z,83.65
2019-04-10T19:18:57.744Z,89.05
2019-04-10T19:21:29.164Z,74.17
2019-04-10T19:24:01.513Z,80.72
2019-04-10T19:31:49.150Z,75.15
2019-04-10T19:34:45.631Z,72.55
2019-04-10T19:37:16.527Z,65.37
2019-04-10T19:39:46.733Z,68.28
2019-04-10T19:42:17.456Z,62.70
2019-04-10T19:44:47.901Z,68.42
2019-04-10T19:47:18.367Z,67.22
2019-04-10T19:49:48.723Z,66.50
2019-04-10T19:52:20.216Z,65.25
2019-04-10T19:55:38.002Z,66.20
2019-04-10T19:58:08.180Z,65.52
2019-04-10T20:00:38.879Z,61.83
2019-04-10T20:03:09.543Z,68.92
2019-04-10T20:05:39.711Z,65.65
2019-04-10T20:08:12.765Z,63.20
2019-04-10T20:10:43.647Z,61.37
2019-04-10T20:13:14.441Z,63.75
2019-04-10T20:15:45.186Z,55.95
2019-04-10T20:18:16.576Z,58.52
2019-04-10T20:20:47.807Z,58.75
2019-04-10T20:23:19.464Z,55.15
2019-04-10T20:25:50.504Z,58.35
2019-04-10T20:28:21.315Z,54.40
2019-04-10T20:30:53.553Z,51.30
2019-04-10T20:33:23.555Z,57.55
2019-04-10T20:35:53.579Z,56.73
2019-04-10T20:38:25.115Z,57.88
2019-04-10T20:40:55.331Z,52.38
2019-04-10T20:43:28.127Z,54.00
2019-04-10T20:45:57.961Z,54.33
2019-04-10T20:48:28.735Z,52.60
2019-04-10T20:50:58.876Z,52.23
2019-04-10T20:53:29.372Z,52.33
2019-04-10T20:56:00.229Z,62.00
2019-04-10T20:58:30.606Z,54.27
2019-04-10T21:01:01.038Z,51.73
2019-04-10T21:03:31.759Z,56.60
2019-04-10T21:06:02.651Z,55.65
2019-04-10T21:08:34.144Z,54.65
2019-04-10T21:11:05.594Z,52.55
2019-04-10T21:13:35.855Z,56.98
2019-04-10T21:16:07.022Z,48.73
2019-04-10T21:18:37.891Z,45.88
2019-04-10T21:21:08.291Z,47.58
2019-04-10T21:23:38.638Z,43.63
2019-04-10T21:26:08.776Z,41.63
2019-04-10T21:28:39.433Z,41.73
2019-04-10T21:31:38.609Z,44.10
2019-04-10T21:34:22.432Z,39.33
2019-04-10T21:36:53.312Z,38.73
2019-04-10T21:39:23.903Z,40.20
2019-04-10T21:41:53.598Z,42.67
2019-04-10T21:44:24.690Z,39.70
2019-04-10T21:46:55.140Z,40.50
2019-04-10T21:49:26.178Z,42.93
2019-04-10T21:51:56.319Z,42.50
2019-04-10T21:54:27.086Z,40.85
2019-04-10T21:56:59.692Z,37.58
2019-04-10T21:59:30.959Z,38.00
2019-04-10T22:02:01.394Z,33.60
2019-04-10T22:04:32.892Z,36.30
2019-04-10T22:07:26.486Z,35.55
2019-04-10T22:10:15.463Z,34.00
2019-04-10T22:12:47.669Z,34.67
2019-04-10T22:15:30.952Z,32.17
2019-04-10T22:18:00.842Z,38.40
2019-04-10T22:20:31.840Z,33.20
2019-04-10T22:23:02.599Z,34.27
2019-04-10T22:25:32.195Z,34.75
2019-04-10T22:28:02.628Z,36.17
2019-04-10T22:30:32.926Z,36.33
2019-04-10T22:33:03.388Z,37.35
2019-04-10T22:35:33.548Z,30.37
2019-04-10T22:38:04.528Z,33.05
2019-04-10T22:40:34.943Z,34.55
2019-04-10T22:43:05.490Z,36.20
2019-04-10T22:45:36.083Z,30.62
2019-04-10T22:48:06.265Z,31.10
2019-04-10T22:50:37.020Z,31.82
2019-04-10T22:53:06.995Z,37.60
2019-04-10T22:55:37.360Z,32.83
2019-04-10T22:58:08.714Z,30.88
2019-04-10T23:00:39.799Z,31.07
2019-04-10T23:03:09.614Z,31.37
2019-04-10T23:05:40.642Z,30.00
2019-04-10T23:08:11.514Z,32.80
2019-04-10T23:10:41.822Z,31.00
2019-04-10T23:13:12.087Z,32.20
2019-04-10T23:15:42.440Z,33.33
2019-04-10T23:18:13.019Z,32.95
2019-04-10T23:20:43.833Z,35.38
2019-04-10T23:23:32.974Z,38.17
2019-04-10T23:26:02.906Z,37.28
2019-04-10T23:28:33.753Z,36.10
2019-04-10T23:31:03.623Z,33.00
2019-04-10T23:33:34.538Z,37.85
2019-04-10T23:36:05.649Z,36.95
2019-04-10T23:38:35.726Z,37.38
2019-04-10T23:41:05.796Z,34.92
2019-04-10T23:43:36.075Z,40.60
2019-04-10T23:46:06.467Z,33.02
2019-04-10T23:48:37.100Z,32.70
2019-04-10T23:51:07.066Z,33.75
2019-04-10T23:53:38.432Z,32.03
2019-04-10T23:56:08.506Z,33.25
2019-04-10T23:58:38.546Z,31.93
